Fort Severn, Canada
Current Conditions -  °F | °C
As of 5:00 AM on Thursday 27 Nov 2014 (Local Time) from CYER Reporting Station
Clear Clear  
Wind Chill: -38°   Ceiling: Unl
Heat Index: -17°   Visibility: 9mi
Dew Point: -22°   Wind: 12mph
Humidity: 76%   Direction: 230°SW
Pressure: 30.28"   Gusts: 17mph
Location:  55.98°N, 87.65°W
Report Text: CYER 271000Z AUTO 23010G15KT 9SM CLR M27/M30 A3028 RMK SLP254
Loading
Personal Weather Stations






























Interactive Weather Map New forecast layout! Learn more

10-Day Weather Forecast

Advertisements
Track Severe Weather on mobile